sensor_id;sensor_type;location;lat;lon;timestamp;P1;durP1;ratioP1;P2;durP2;ratioP2
57071;SDS011;42956;51.366;11.298;2023-03-02T00:02:16;15.05;;;8.48;;
57071;SDS011;42956;51.366;11.298;2023-03-02T00:04:47;15.45;;;7.80;;
57071;SDS011;42956;51.366;11.298;2023-03-02T00:07:16;15.98;;;8.15;;
57071;SDS011;42956;51.366;11.298;2023-03-02T00:09:46;12.57;;;7.13;;
57071;SDS011;42956;51.366;11.298;2023-03-02T00:12:15;16.80;;;7.03;;
57071;SDS011;42956;51.366;11.298;2023-03-02T00:14:43;13.70;;;7.40;;
57071;SDS011;42956;51.366;11.298;2023-03-02T00:17:11;11.30;;;6.90;;
57071;SDS011;42956;51.366;11.298;2023-03-02T00:19:39;13.38;;;6.72;;
57071;SDS011;42956;51.366;11.298;2023-03-02T00:22:07;12.85;;;7.05;;
57071;SDS011;42956;51.366;11.298;2023-03-02T00:24:36;14.95;;;8.27;;
57071;SDS011;42956;51.366;11.298;2023-03-02T00:27:04;17.48;;;7.30;;
57071;SDS011;42956;51.366;11.298;2023-03-02T00:29:33;11.90;;;7.25;;
57071;SDS011;42956;51.366;11.298;2023-03-02T00:32:02;12.95;;;7.80;;
57071;SDS011;42956;51.366;11.298;2023-03-02T00:34:30;15.10;;;7.45;;
57071;SDS011;42956;51.366;11.298;2023-03-02T00:36:58;12.77;;;7.82;;
57071;SDS011;42956;51.366;11.298;2023-03-02T00:39:26;17.80;;;8.07;;
57071;SDS011;42956;51.366;11.298;2023-03-02T00:41:54;13.75;;;7.50;;
57071;SDS011;42956;51.366;11.298;2023-03-02T00:44:22;14.45;;;7.45;;
57071;SDS011;42956;51.366;11.298;2023-03-02T00:46:51;12.80;;;6.72;;
57071;SDS011;42956;51.366;11.298;2023-03-02T00:49:19;12.63;;;6.75;;
57071;SDS011;42956;51.366;11.298;2023-03-02T00:51:47;18.15;;;6.68;;
57071;SDS011;42956;51.366;11.298;2023-03-02T00:54:15;15.68;;;7.82;;
57071;SDS011;42956;51.366;11.298;2023-03-02T00:56:43;16.95;;;7.63;;
57071;SDS011;42956;51.366;11.298;2023-03-02T00:59:12;11.70;;;6.75;;
57071;SDS011;42956;51.366;11.298;2023-03-02T01:01:53;17.92;;;8.88;;
57071;SDS011;42956;51.366;11.298;2023-03-02T01:04:24;14.38;;;7.72;;
57071;SDS011;42956;51.366;11.298;2023-03-02T01:06:55;12.32;;;6.68;;
57071;SDS011;42956;51.366;11.298;2023-03-02T01:09:23;11.77;;;6.10;;
57071;SDS011;42956;51.366;11.298;2023-03-02T01:11:51;10.10;;;6.57;;
57071;SDS011;42956;51.366;11.298;2023-03-02T01:14:19;14.50;;;6.65;;
57071;SDS011;42956;51.366;11.298;2023-03-02T01:16:47;18.80;;;8.23;;
57071;SDS011;42956;51.366;11.298;2023-03-02T01:19:16;12.13;;;7.55;;
57071;SDS011;42956;51.366;11.298;2023-03-02T01:21:45;12.95;;;7.22;;
57071;SDS011;42956;51.366;11.298;2023-03-02T01:24:13;16.63;;;6.50;;
57071;SDS011;42956;51.366;11.298;2023-03-02T01:26:40;14.35;;;6.80;;
57071;SDS011;42956;51.366;11.298;2023-03-02T01:29:08;13.93;;;8.38;;
57071;SDS011;42956;51.366;11.298;2023-03-02T01:31:37;13.52;;;7.30;;
57071;SDS011;42956;51.366;11.298;2023-03-02T01:34:05;11.43;;;6.53;;
57071;SDS011;42956;51.366;11.298;2023-03-02T01:36:34;10.20;;;6.90;;
57071;SDS011;42956;51.366;11.298;2023-03-02T01:39:02;12.82;;;7.50;;
57071;SDS011;42956;51.366;11.298;2023-03-02T01:41:30;15.68;;;6.75;;
57071;SDS011;42956;51.366;11.298;2023-03-02T01:43:59;12.95;;;6.57;;
57071;SDS011;42956;51.366;11.298;2023-03-02T01:46:27;20.45;;;7.70;;
57071;SDS011;42956;51.366;11.298;2023-03-02T01:49:00;12.15;;;7.60;;
57071;SDS011;42956;51.366;11.298;2023-03-02T01:51:29;14.55;;;7.65;;
57071;SDS011;42956;51.366;11.298;2023-03-02T01:54:01;10.18;;;6.88;;
57071;SDS011;42956;51.366;11.298;2023-03-02T01:56:30;14.18;;;7.10;;
57071;SDS011;42956;51.366;11.298;2023-03-02T01:59:01;13.48;;;7.50;;
57071;SDS011;42956;51.366;11.298;2023-03-02T02:01:31;13.50;;;7.80;;
57071;SDS011;42956;51.366;11.298;2023-03-02T02:03:59;13.45;;;7.13;;
57071;SDS011;42956;51.366;11.298;2023-03-02T02:06:30;13.30;;;7.57;;
57071;SDS011;42956;51.366;11.298;2023-03-02T02:09:00;11.70;;;7.68;;
57071;SDS011;42956;51.366;11.298;2023-03-02T02:11:30;15.23;;;7.55;;
57071;SDS011;42956;51.366;11.298;2023-03-02T02:13:58;10.05;;;6.15;;
57071;SDS011;42956;51.366;11.298;2023-03-02T02:16:27;20.25;;;8.35;;
57071;SDS011;42956;51.366;11.298;2023-03-02T02:18:55;14.70;;;6.97;;
57071;SDS011;42956;51.366;11.298;2023-03-02T02:21:23;14.90;;;7.45;;
57071;SDS011;42956;51.366;11.298;2023-03-02T02:23:55;9.88;;;6.85;;
57071;SDS011;42956;51.366;11.298;2023-03-02T02:26:29;14.20;;;7.85;;
57071;SDS011;42956;51.366;11.298;2023-03-02T02:29:01;14.35;;;7.57;;
57071;SDS011;42956;51.366;11.298;2023-03-02T02:31:32;13.20;;;7.30;;
57071;SDS011;42956;51.366;11.298;2023-03-02T02:34:02;13.85;;;7.72;;
57071;SDS011;42956;51.366;11.298;2023-03-02T02:36:33;12.80;;;7.47;;
57071;SDS011;42956;51.366;11.298;2023-03-02T02:39:03;14.63;;;6.68;;
57071;SDS011;42956;51.366;11.298;2023-03-02T02:41:34;13.32;;;7.63;;
57071;SDS011;42956;51.366;11.298;2023-03-02T02:44:03;14.07;;;7.20;;
57071;SDS011;42956;51.366;11.298;2023-03-02T02:46:31;15.68;;;8.13;;
57071;SDS011;42956;51.366;11.298;2023-03-02T02:49:00;16.02;;;7.82;;
57071;SDS011;42956;51.366;11.298;2023-03-02T02:51:29;13.15;;;6.93;;
57071;SDS011;42956;51.366;11.298;2023-03-02T02:53:58;13.48;;;7.45;;
57071;SDS011;42956;51.366;11.298;2023-03-02T02:56:26;14.38;;;7.05;;
57071;SDS011;42956;51.366;11.298;2023-03-02T02:58:56;14.82;;;8.13;;
57071;SDS011;42956;51.366;11.298;2023-03-02T03:01:26;15.15;;;7.40;;
57071;SDS011;42956;51.366;11.298;2023-03-02T03:03:54;17.77;;;7.78;;
57071;SDS011;42956;51.366;11.298;2023-03-02T03:06:24;18.10;;;8.05;;
57071;SDS011;42956;51.366;11.298;2023-03-02T03:08:55;12.55;;;6.80;;
57071;SDS011;42956;51.366;11.298;2023-03-02T03:11:24;13.10;;;7.68;;
57071;SDS011;42956;51.366;11.298;2023-03-02T03:13:54;13.60;;;7.90;;
57071;SDS011;42956;51.366;11.298;2023-03-02T03:16:24;12.33;;;7.30;;
57071;SDS011;42956;51.366;11.298;2023-03-02T03:18:52;16.02;;;7.53;;
57071;SDS011;42956;51.366;11.298;2023-03-02T03:21:21;11.93;;;7.57;;
57071;SDS011;42956;51.366;11.298;2023-03-02T03:23:48;15.05;;;7.55;;
57071;SDS011;42956;51.366;11.298;2023-03-02T03:26:16;19.88;;;8.45;;
57071;SDS011;42956;51.366;11.298;2023-03-02T03:28:44;17.63;;;8.32;;
57071;SDS011;42956;51.366;11.298;2023-03-02T03:31:12;17.85;;;7.47;;
57071;SDS011;42956;51.366;11.298;2023-03-02T03:33:41;14.75;;;7.32;;
57071;SDS011;42956;51.366;11.298;2023-03-02T03:36:09;14.50;;;7.70;;
57071;SDS011;42956;51.366;11.298;2023-03-02T03:38:37;14.93;;;8.38;;
57071;SDS011;42956;51.366;11.298;2023-03-02T03:41:05;16.85;;;7.30;;
57071;SDS011;42956;51.366;11.298;2023-03-02T03:43:33;14.80;;;7.75;;
57071;SDS011;42956;51.366;11.298;2023-03-02T03:46:01;21.55;;;8.18;;
57071;SDS011;42956;51.366;11.298;2023-03-02T03:48:29;13.02;;;7.22;;
57071;SDS011;42956;51.366;11.298;2023-03-02T03:50:58;13.77;;;8.35;;
57071;SDS011;42956;51.366;11.298;2023-03-02T03:53:26;13.18;;;7.90;;
57071;SDS011;42956;51.366;11.298;2023-03-02T03:55:54;14.63;;;8.10;;
57071;SDS011;42956;51.366;11.298;2023-03-02T03:58:23;12.77;;;7.28;;
57071;SDS011;42956;51.366;11.298;2023-03-02T04:00:51;11.88;;;7.13;;
57071;SDS011;42956;51.366;11.298;2023-03-02T04:03:19;16.83;;;7.82;;
57071;SDS011;42956;51.366;11.298;2023-03-02T04:05:48;18.33;;;8.82;;
57071;SDS011;42956;51.366;11.298;2023-03-02T04:08:17;16.05;;;7.47;;
57071;SDS011;42956;51.366;11.298;2023-03-02T04:10:45;18.30;;;7.68;;
57071;SDS011;42956;51.366;11.298;2023-03-02T04:13:13;16.52;;;8.15;;
57071;SDS011;42956;51.366;11.298;2023-03-02T04:15:41;12.35;;;7.25;;
57071;SDS011;42956;51.366;11.298;2023-03-02T04:18:12;15.63;;;8.43;;
57071;SDS011;42956;51.366;11.298;2023-03-02T04:20:40;17.85;;;8.00;;
57071;SDS011;42956;51.366;11.298;2023-03-02T04:23:08;17.33;;;8.02;;
57071;SDS011;42956;51.366;11.298;2023-03-02T04:25:37;18.23;;;8.02;;
57071;SDS011;42956;51.366;11.298;2023-03-02T04:28:05;17.73;;;8.15;;
57071;SDS011;42956;51.366;11.298;2023-03-02T04:30:33;16.08;;;8.73;;
57071;SDS011;42956;51.366;11.298;2023-03-02T04:33:01;26.02;;;8.75;;
57071;SDS011;42956;51.366;11.298;2023-03-02T04:35:29;18.52;;;9.02;;
57071;SDS011;42956;51.366;11.298;2023-03-02T04:37:57;16.73;;;9.07;;
57071;SDS011;42956;51.366;11.298;2023-03-02T04:40:25;16.13;;;8.90;;
57071;SDS011;42956;51.366;11.298;2023-03-02T04:42:54;18.30;;;9.00;;
57071;SDS011;42956;51.366;11.298;2023-03-02T04:45:22;17.20;;;9.90;;
57071;SDS011;42956;51.366;11.298;2023-03-02T04:47:50;15.18;;;8.32;;
57071;SDS011;42956;51.366;11.298;2023-03-02T04:50:17;19.42;;;8.85;;
57071;SDS011;42956;51.366;11.298;2023-03-02T04:52:45;14.23;;;8.05;;
57071;SDS011;42956;51.366;11.298;2023-03-02T04:55:14;15.73;;;8.40;;
57071;SDS011;42956;51.366;11.298;2023-03-02T04:57:44;16.42;;;8.98;;
57071;SDS011;42956;51.366;11.298;2023-03-02T05:00:14;14.02;;;7.75;;
57071;SDS011;42956;51.366;11.298;2023-03-02T05:02:42;18.83;;;9.13;;
57071;SDS011;42956;51.366;11.298;2023-03-02T05:05:11;15.63;;;7.50;;
57071;SDS011;42956;51.366;11.298;2023-03-02T05:07:41;17.88;;;8.45;;
57071;SDS011;42956;51.366;11.298;2023-03-02T05:10:10;17.60;;;7.28;;
57071;SDS011;42956;51.366;11.298;2023-03-02T05:12:38;18.00;;;7.93;;
57071;SDS011;42956;51.366;11.298;2023-03-02T05:15:22;15.60;;;7.32;;
57071;SDS011;42956;51.366;11.298;2023-03-02T05:17:50;18.58;;;8.65;;
57071;SDS011;42956;51.366;11.298;2023-03-02T05:20:18;18.42;;;8.23;;
57071;SDS011;42956;51.366;11.298;2023-03-02T05:22:46;14.55;;;7.88;;
57071;SDS011;42956;51.366;11.298;2023-03-02T05:25:14;15.05;;;7.95;;
57071;SDS011;42956;51.366;11.298;2023-03-02T05:27:41;14.43;;;8.38;;
57071;SDS011;42956;51.366;11.298;2023-03-02T05:30:10;16.45;;;7.95;;
57071;SDS011;42956;51.366;11.298;2023-03-02T05:32:39;17.42;;;9.25;;
57071;SDS011;42956;51.366;11.298;2023-03-02T05:35:07;18.85;;;9.32;;
57071;SDS011;42956;51.366;11.298;2023-03-02T05:37:35;17.92;;;7.82;;
57071;SDS011;42956;51.366;11.298;2023-03-02T05:40:07;18.42;;;8.85;;
57071;SDS011;42956;51.366;11.298;2023-03-02T05:42:35;18.08;;;8.68;;
57071;SDS011;42956;51.366;11.298;2023-03-02T05:45:03;16.52;;;9.65;;
57071;SDS011;42956;51.366;11.298;2023-03-02T05:47:32;21.30;;;8.95;;
57071;SDS011;42956;51.366;11.298;2023-03-02T05:50:01;15.93;;;8.80;;
57071;SDS011;42956;51.366;11.298;2023-03-02T05:52:29;19.83;;;9.77;;
57071;SDS011;42956;51.366;11.298;2023-03-02T05:54:57;19.77;;;8.38;;
57071;SDS011;42956;51.366;11.298;2023-03-02T05:57:25;19.10;;;8.07;;
57071;SDS011;42956;51.366;11.298;2023-03-02T05:59:53;15.77;;;8.65;;
57071;SDS011;42956;51.366;11.298;2023-03-02T06:02:21;16.63;;;8.85;;
57071;SDS011;42956;51.366;11.298;2023-03-02T06:04:49;17.60;;;8.88;;
57071;SDS011;42956;51.366;11.298;2023-03-02T06:07:18;22.27;;;8.55;;
57071;SDS011;42956;51.366;11.298;2023-03-02T06:09:46;18.63;;;9.82;;
57071;SDS011;42956;51.366;11.298;2023-03-02T06:12:15;13.85;;;8.30;;
57071;SDS011;42956;51.366;11.298;2023-03-02T06:14:43;19.92;;;9.40;;
57071;SDS011;42956;51.366;11.298;2023-03-02T06:17:12;18.95;;;9.32;;
57071;SDS011;42956;51.366;11.298;2023-03-02T06:19:40;16.70;;;7.75;;
57071;SDS011;42956;51.366;11.298;2023-03-02T06:22:08;19.35;;;8.80;;
57071;SDS011;42956;51.366;11.298;2023-03-02T06:24:38;19.50;;;8.63;;
57071;SDS011;42956;51.366;11.298;2023-03-02T06:27:06;13.52;;;7.53;;
57071;SDS011;42956;51.366;11.298;2023-03-02T06:29:33;20.88;;;9.52;;
57071;SDS011;42956;51.366;11.298;2023-03-02T06:32:01;16.05;;;8.43;;
57071;SDS011;42956;51.366;11.298;2023-03-02T06:34:30;15.07;;;9.15;;
57071;SDS011;42956;51.366;11.298;2023-03-02T06:37:00;20.20;;;8.93;;
57071;SDS011;42956;51.366;11.298;2023-03-02T06:39:28;24.58;;;10.65;;
57071;SDS011;42956;51.366;11.298;2023-03-02T06:41:57;18.52;;;7.75;;
57071;SDS011;42956;51.366;11.298;2023-03-02T06:44:26;22.13;;;9.32;;
57071;SDS011;42956;51.366;11.298;2023-03-02T06:46:53;14.88;;;7.65;;
57071;SDS011;42956;51.366;11.298;2023-03-02T06:49:21;17.98;;;8.05;;
57071;SDS011;42956;51.366;11.298;2023-03-02T06:51:51;17.50;;;8.48;;
57071;SDS011;42956;51.366;11.298;2023-03-02T06:54:18;20.30;;;10.27;;
57071;SDS011;42956;51.366;11.298;2023-03-02T06:56:49;13.70;;;8.35;;
57071;SDS011;42956;51.366;11.298;2023-03-02T06:59:18;19.58;;;8.40;;
57071;SDS011;42956;51.366;11.298;2023-03-02T07:01:46;22.13;;;8.30;;
57071;SDS011;42956;51.366;11.298;2023-03-02T07:04:16;18.42;;;9.45;;
57071;SDS011;42956;51.366;11.298;2023-03-02T07:06:44;17.45;;;8.32;;
57071;SDS011;42956;51.366;11.298;2023-03-02T07:09:11;14.40;;;8.75;;
57071;SDS011;42956;51.366;11.298;2023-03-02T07:11:39;11.90;;;6.97;;
57071;SDS011;42956;51.366;11.298;2023-03-02T07:14:07;14.30;;;8.10;;
57071;SDS011;42956;51.366;11.298;2023-03-02T07:16:36;19.70;;;8.80;;
57071;SDS011;42956;51.366;11.298;2023-03-02T07:19:04;15.43;;;8.25;;
57071;SDS011;42956;51.366;11.298;2023-03-02T07:21:32;16.95;;;8.07;;
57071;SDS011;42956;51.366;11.298;2023-03-02T07:24:00;12.70;;;7.82;;
57071;SDS011;42956;51.366;11.298;2023-03-02T07:26:28;19.10;;;8.48;;
57071;SDS011;42956;51.366;11.298;2023-03-02T07:28:56;16.38;;;8.77;;
57071;SDS011;42956;51.366;11.298;2023-03-02T07:31:25;18.75;;;8.35;;
57071;SDS011;42956;51.366;11.298;2023-03-02T07:33:54;13.23;;;7.60;;
57071;SDS011;42956;51.366;11.298;2023-03-02T07:36:22;15.70;;;8.57;;
57071;SDS011;42956;51.366;11.298;2023-03-02T07:38:50;19.60;;;9.05;;
57071;SDS011;42956;51.366;11.298;2023-03-02T07:41:18;17.33;;;9.30;;
57071;SDS011;42956;51.366;11.298;2023-03-02T07:43:45;15.77;;;8.25;;
57071;SDS011;42956;51.366;11.298;2023-03-02T07:46:13;19.20;;;10.75;;
57071;SDS011;42956;51.366;11.298;2023-03-02T07:48:41;18.30;;;9.77;;
57071;SDS011;42956;51.366;11.298;2023-03-02T07:51:11;17.17;;;9.32;;
57071;SDS011;42956;51.366;11.298;2023-03-02T07:53:38;51.38;;;21.42;;
57071;SDS011;42956;51.366;11.298;2023-03-02T07:56:07;59.42;;;25.02;;
57071;SDS011;42956;51.366;11.298;2023-03-02T07:58:35;28.27;;;12.52;;
57071;SDS011;42956;51.366;11.298;2023-03-02T08:01:03;21.25;;;9.98;;
57071;SDS011;42956;51.366;11.298;2023-03-02T08:03:32;17.45;;;9.38;;
57071;SDS011;42956;51.366;11.298;2023-03-02T08:06:02;20.77;;;8.98;;
57071;SDS011;42956;51.366;11.298;2023-03-02T08:08:32;17.77;;;10.05;;
57071;SDS011;42956;51.366;11.298;2023-03-02T08:11:02;15.95;;;9.98;;
57071;SDS011;42956;51.366;11.298;2023-03-02T08:13:30;16.08;;;9.00;;
57071;SDS011;42956;51.366;11.298;2023-03-02T08:15:59;16.40;;;8.90;;
57071;SDS011;42956;51.366;11.298;2023-03-02T08:18:27;25.65;;;9.90;;
57071;SDS011;42956;51.366;11.298;2023-03-02T08:20:55;22.40;;;9.43;;
57071;SDS011;42956;51.366;11.298;2023-03-02T08:23:23;15.68;;;9.65;;
57071;SDS011;42956;51.366;11.298;2023-03-02T08:25:53;16.70;;;9.60;;
57071;SDS011;42956;51.366;11.298;2023-03-02T08:28:21;23.58;;;10.20;;
57071;SDS011;42956;51.366;11.298;2023-03-02T08:30:55;19.60;;;9.75;;
57071;SDS011;42956;51.366;11.298;2023-03-02T08:33:23;15.48;;;9.82;;
57071;SDS011;42956;51.366;11.298;2023-03-02T08:35:53;16.88;;;9.52;;
57071;SDS011;42956;51.366;11.298;2023-03-02T08:38:21;20.88;;;11.52;;
57071;SDS011;42956;51.366;11.298;2023-03-02T08:40:49;21.25;;;10.90;;
57071;SDS011;42956;51.366;11.298;2023-03-02T08:43:19;21.02;;;11.82;;
57071;SDS011;42956;51.366;11.298;2023-03-02T08:45:49;26.17;;;15.38;;
57071;SDS011;42956;51.366;11.298;2023-03-02T08:48:17;23.05;;;14.32;;
57071;SDS011;42956;51.366;11.298;2023-03-02T08:50:52;18.88;;;11.57;;
57071;SDS011;42956;51.366;11.298;2023-03-02T08:53:20;23.98;;;12.68;;
57071;SDS011;42956;51.366;11.298;2023-03-02T08:55:48;21.50;;;12.00;;
57071;SDS011;42956;51.366;11.298;2023-03-02T08:58:16;22.50;;;11.32;;
57071;SDS011;42956;51.366;11.298;2023-03-02T09:00:45;22.40;;;11.40;;
57071;SDS011;42956;51.366;11.298;2023-03-02T09:03:13;25.08;;;13.45;;
57071;SDS011;42956;51.366;11.298;2023-03-02T09:05:41;21.73;;;12.27;;
57071;SDS011;42956;51.366;11.298;2023-03-02T09:08:09;20.25;;;12.23;;
57071;SDS011;42956;51.366;11.298;2023-03-02T09:10:37;26.05;;;13.88;;
57071;SDS011;42956;51.366;11.298;2023-03-02T09:13:05;23.58;;;12.60;;
57071;SDS011;42956;51.366;11.298;2023-03-02T09:15:34;23.80;;;12.82;;
57071;SDS011;42956;51.366;11.298;2023-03-02T09:18:03;24.05;;;13.00;;
57071;SDS011;42956;51.366;11.298;2023-03-02T09:20:32;25.08;;;13.57;;
57071;SDS011;42956;51.366;11.298;2023-03-02T09:23:00;22.42;;;12.45;;
57071;SDS011;42956;51.366;11.298;2023-03-02T09:25:28;26.77;;;14.68;;
57071;SDS011;42956;51.366;11.298;2023-03-02T09:27:56;21.65;;;11.60;;
57071;SDS011;42956;51.366;11.298;2023-03-02T09:30:24;28.75;;;12.73;;
57071;SDS011;42956;51.366;11.298;2023-03-02T09:32:52;27.48;;;12.23;;
57071;SDS011;42956;51.366;11.298;2023-03-02T09:35:21;25.20;;;12.13;;
57071;SDS011;42956;51.366;11.298;2023-03-02T09:37:49;22.77;;;13.52;;
57071;SDS011;42956;51.366;11.298;2023-03-02T09:40:18;21.67;;;12.13;;
57071;SDS011;42956;51.366;11.298;2023-03-02T09:42:53;24.05;;;12.75;;
57071;SDS011;42956;51.366;11.298;2023-03-02T09:45:34;24.63;;;13.63;;
57071;SDS011;42956;51.366;11.298;2023-03-02T09:50:36;22.10;;;11.93;;
57071;SDS011;42956;51.366;11.298;2023-03-02T09:53:11;31.38;;;13.93;;
57071;SDS011;42956;51.366;11.298;2023-03-02T09:55:43;24.65;;;12.43;;
57071;SDS011;42956;51.366;11.298;2023-03-02T09:58:13;24.27;;;12.20;;
57071;SDS011;42956;51.366;11.298;2023-03-02T10:00:42;23.92;;;11.70;;
57071;SDS011;42956;51.366;11.298;2023-03-02T10:03:13;27.83;;;13.25;;
57071;SDS011;42956;51.366;11.298;2023-03-02T10:05:45;25.70;;;11.50;;
57071;SDS011;42956;51.366;11.298;2023-03-02T10:08:14;23.33;;;12.30;;
57071;SDS011;42956;51.366;11.298;2023-03-02T10:10:43;26.45;;;11.48;;
57071;SDS011;42956;51.366;11.298;2023-03-02T10:13:17;24.63;;;13.60;;
57071;SDS011;42956;51.366;11.298;2023-03-02T10:15:48;21.33;;;11.20;;
57071;SDS011;42956;51.366;11.298;2023-03-02T10:18:20;22.65;;;12.90;;
57071;SDS011;42956;51.366;11.298;2023-03-02T10:20:52;23.40;;;12.02;;
57071;SDS011;42956;51.366;11.298;2023-03-02T10:23:32;21.83;;;12.05;;
57071;SDS011;42956;51.366;11.298;2023-03-02T10:26:05;22.50;;;11.93;;
57071;SDS011;42956;51.366;11.298;2023-03-02T10:28:35;28.42;;;12.93;;
57071;SDS011;42956;51.366;11.298;2023-03-02T10:31:06;24.40;;;12.93;;
57071;SDS011;42956;51.366;11.298;2023-03-02T10:33:35;22.77;;;11.60;;
57071;SDS011;42956;51.366;11.298;2023-03-02T10:36:06;22.33;;;13.07;;
57071;SDS011;42956;51.366;11.298;2023-03-02T10:38:41;23.58;;;12.50;;
57071;SDS011;42956;51.366;11.298;2023-03-02T10:41:09;21.58;;;11.30;;
57071;SDS011;42956;51.366;11.298;2023-03-02T10:43:41;19.20;;;11.68;;
57071;SDS011;42956;51.366;11.298;2023-03-02T10:46:12;20.85;;;10.68;;
57071;SDS011;42956;51.366;11.298;2023-03-02T10:48:46;21.67;;;12.30;;
57071;SDS011;42956;51.366;11.298;2023-03-02T10:51:21;20.23;;;11.45;;
57071;SDS011;42956;51.366;11.298;2023-03-02T10:53:49;21.60;;;12.80;;
57071;SDS011;42956;51.366;11.298;2023-03-02T10:56:18;23.90;;;13.07;;
57071;SDS011;42956;51.366;11.298;2023-03-02T10:58:46;22.15;;;12.70;;
57071;SDS011;42956;51.366;11.298;2023-03-02T11:01:15;19.10;;;11.15;;
57071;SDS011;42956;51.366;11.298;2023-03-02T11:03:53;24.00;;;11.88;;
57071;SDS011;42956;51.366;11.298;2023-03-02T11:06:22;22.55;;;12.13;;
57071;SDS011;42956;51.366;11.298;2023-03-02T11:08:57;19.55;;;11.20;;
57071;SDS011;42956;51.366;11.298;2023-03-02T11:11:25;22.77;;;13.43;;
57071;SDS011;42956;51.366;11.298;2023-03-02T11:13:55;16.52;;;10.43;;
57071;SDS011;42956;51.366;11.298;2023-03-02T11:16:36;22.55;;;10.40;;
57071;SDS011;42956;51.366;11.298;2023-03-02T11:19:06;17.83;;;10.35;;
57071;SDS011;42956;51.366;11.298;2023-03-02T11:21:37;20.77;;;10.90;;
57071;SDS011;42956;51.366;11.298;2023-03-02T11:24:08;18.27;;;10.82;;
57071;SDS011;42956;51.366;11.298;2023-03-02T11:26:41;20.02;;;10.32;;
57071;SDS011;42956;51.366;11.298;2023-03-02T11:29:11;16.65;;;10.00;;
57071;SDS011;42956;51.366;11.298;2023-03-02T11:31:41;20.42;;;10.07;;
57071;SDS011;42956;51.366;11.298;2023-03-02T11:34:14;18.35;;;10.45;;
57071;SDS011;42956;51.366;11.298;2023-03-02T11:36:49;19.08;;;10.07;;
57071;SDS011;42956;51.366;11.298;2023-03-02T11:39:21;21.17;;;10.30;;
57071;SDS011;42956;51.366;11.298;2023-03-02T11:41:50;20.05;;;10.95;;
57071;SDS011;42956;51.366;11.298;2023-03-02T11:44:19;15.82;;;9.88;;
57071;SDS011;42956;51.366;11.298;2023-03-02T11:46:50;14.45;;;9.13;;
57071;SDS011;42956;51.366;11.298;2023-03-02T11:49:22;17.50;;;10.48;;
57071;SDS011;42956;51.366;11.298;2023-03-02T11:51:55;15.13;;;8.73;;
57071;SDS011;42956;51.366;11.298;2023-03-02T11:54:32;13.35;;;8.82;;
57071;SDS011;42956;51.366;11.298;2023-03-02T11:57:03;17.88;;;9.50;;
57071;SDS011;42956;51.366;11.298;2023-03-02T11:59:31;18.08;;;10.10;;
57071;SDS011;42956;51.366;11.298;2023-03-02T12:01:59;14.40;;;10.00;;
57071;SDS011;42956;51.366;11.298;2023-03-02T12:04:29;23.42;;;9.93;;
57071;SDS011;42956;51.366;11.298;2023-03-02T12:07:01;18.80;;;8.52;;
57071;SDS011;42956;51.366;11.298;2023-03-02T12:09:34;15.25;;;10.13;;
57071;SDS011;42956;51.366;11.298;2023-03-02T12:14:49;14.02;;;9.23;;
57071;SDS011;42956;51.366;11.298;2023-03-02T12:17:19;16.70;;;9.93;;
57071;SDS011;42956;51.366;11.298;2023-03-02T12:19:48;16.10;;;9.27;;
57071;SDS011;42956;51.366;11.298;2023-03-02T12:22:26;15.73;;;8.77;;
57071;SDS011;42956;51.366;11.298;2023-03-02T12:24:58;15.63;;;9.18;;
57071;SDS011;42956;51.366;11.298;2023-03-02T12:27:32;21.42;;;9.02;;
57071;SDS011;42956;51.366;11.298;2023-03-02T12:30:08;17.80;;;9.70;;
57071;SDS011;42956;51.366;11.298;2023-03-02T12:32:36;19.88;;;10.10;;
57071;SDS011;42956;51.366;11.298;2023-03-02T12:35:08;14.18;;;8.65;;
57071;SDS011;42956;51.366;11.298;2023-03-02T12:37:40;14.70;;;9.07;;
57071;SDS011;42956;51.366;11.298;2023-03-02T12:40:24;16.58;;;10.05;;
57071;SDS011;42956;51.366;11.298;2023-03-02T12:43:06;17.08;;;10.10;;
57071;SDS011;42956;51.366;11.298;2023-03-02T12:45:40;13.80;;;9.45;;
57071;SDS011;42956;51.366;11.298;2023-03-02T12:48:18;14.02;;;8.63;;
57071;SDS011;42956;51.366;11.298;2023-03-02T12:50:47;13.82;;;8.40;;
57071;SDS011;42956;51.366;11.298;2023-03-02T12:53:17;14.30;;;9.85;;
57071;SDS011;42956;51.366;11.298;2023-03-02T12:55:45;18.42;;;10.50;;
57071;SDS011;42956;51.366;11.298;2023-03-02T12:58:17;13.80;;;9.93;;
57071;SDS011;42956;51.366;11.298;2023-03-02T13:00:49;12.27;;;8.40;;
57071;SDS011;42956;51.366;11.298;2023-03-02T13:03:17;15.13;;;8.52;;
57071;SDS011;42956;51.366;11.298;2023-03-02T13:05:45;17.73;;;10.05;;
57071;SDS011;42956;51.366;11.298;2023-03-02T13:08:15;15.45;;;9.27;;
57071;SDS011;42956;51.366;11.298;2023-03-02T13:10:48;15.35;;;10.13;;
57071;SDS011;42956;51.366;11.298;2023-03-02T13:13:17;14.35;;;10.48;;
57071;SDS011;42956;51.366;11.298;2023-03-02T13:15:47;13.80;;;8.88;;
57071;SDS011;42956;51.366;11.298;2023-03-02T13:18:15;17.33;;;8.75;;
57071;SDS011;42956;51.366;11.298;2023-03-02T13:20:43;15.95;;;9.93;;
57071;SDS011;42956;51.366;11.298;2023-03-02T13:23:11;15.05;;;9.75;;
57071;SDS011;42956;51.366;11.298;2023-03-02T13:25:46;29.58;;;13.10;;
57071;SDS011;42956;51.366;11.298;2023-03-02T13:28:25;19.85;;;12.00;;
57071;SDS011;42956;51.366;11.298;2023-03-02T13:30:54;18.58;;;10.73;;
57071;SDS011;42956;51.366;11.298;2023-03-02T13:33:24;15.00;;;10.27;;
57071;SDS011;42956;51.366;11.298;2023-03-02T13:35:52;18.35;;;11.05;;
57071;SDS011;42956;51.366;11.298;2023-03-02T13:38:22;15.55;;;10.38;;
57071;SDS011;42956;51.366;11.298;2023-03-02T13:40:51;17.40;;;11.10;;
57071;SDS011;42956;51.366;11.298;2023-03-02T13:43:28;15.88;;;10.95;;
57071;SDS011;42956;51.366;11.298;2023-03-02T13:45:58;18.88;;;10.45;;
57071;SDS011;42956;51.366;11.298;2023-03-02T13:48:26;19.92;;;11.90;;
57071;SDS011;42956;51.366;11.298;2023-03-02T13:50:55;20.40;;;11.48;;
57071;SDS011;42956;51.366;11.298;2023-03-02T13:53:23;24.13;;;13.73;;
57071;SDS011;42956;51.366;11.298;2023-03-02T13:55:52;18.60;;;10.70;;
57071;SDS011;42956;51.366;11.298;2023-03-02T13:58:21;25.40;;;12.40;;
57071;SDS011;42956;51.366;11.298;2023-03-02T14:00:51;23.77;;;14.05;;
57071;SDS011;42956;51.366;11.298;2023-03-02T14:06:41;16.23;;;10.88;;
57071;SDS011;42956;51.366;11.298;2023-03-02T14:09:09;19.73;;;11.30;;
57071;SDS011;42956;51.366;11.298;2023-03-02T14:11:37;21.95;;;12.23;;
57071;SDS011;42956;51.366;11.298;2023-03-02T14:14:06;21.23;;;11.65;;
57071;SDS011;42956;51.366;11.298;2023-03-02T14:16:40;18.73;;;12.10;;
57071;SDS011;42956;51.366;11.298;2023-03-02T14:19:08;17.83;;;11.85;;
57071;SDS011;42956;51.366;11.298;2023-03-02T14:21:37;17.55;;;12.13;;
57071;SDS011;42956;51.366;11.298;2023-03-02T14:24:05;18.92;;;11.98;;
57071;SDS011;42956;51.366;11.298;2023-03-02T14:26:34;21.30;;;12.45;;
57071;SDS011;42956;51.366;11.298;2023-03-02T14:29:03;19.83;;;12.85;;
57071;SDS011;42956;51.366;11.298;2023-03-02T14:31:32;22.35;;;14.32;;
57071;SDS011;42956;51.366;11.298;2023-03-02T14:34:02;24.73;;;13.00;;
57071;SDS011;42956;51.366;11.298;2023-03-02T14:36:31;28.48;;;13.77;;
57071;SDS011;42956;51.366;11.298;2023-03-02T14:38:59;24.65;;;13.38;;